Overview Statistics Trail Chart Weather Telemetry Raw packets
 

This is the latest recevied weather packets stored in our database for station/object KK7ZBX. If no packets are shown the sender has not sent any weather packets the latest 10 day(s).

<< 2 3 4 5 6 7 >>
Time Temp. Humidity Pressure Rain* Wind** Luminosity Snow
1788085822 14.44° C 74% 1020.4 hPa - - - -
1788082227 15° C 72% 1020.1 hPa - - - -
1788075033 15.56° C 71% 1019.9 hPa - - - -
1788073295 15.56° C 70% 1019.8 hPa - - - -
1788073227 15.56° C 70% 1019.8 hPa - - - -
1788067816 16.11° C 72% 1019.3 hPa - - - -
1788064218 16.67° C 72% 1019.1 hPa - - - -
1788062415 16.67° C 70% 1018.8 hPa - - - -
1788057010 17.78° C 67% 1018 hPa - - - -
1788055231 18.33° C 66% 1018 hPa - - - -
1788042609 19.44° C 60% 1018 hPa - - - -
1788040819 18.89° C 65% 1018 hPa - - - -
1788037232 18.33° C 72% 1018.4 hPa - - - -
1788035414 19.44° C 75% 1018.3 hPa - - - -
1788024617 13.89° C 92% 1017.7 hPa - - - -
1788021017 13.89° C 91% 1017.3 hPa - - - -
1788017427 13.33° C 94% 1016.5 hPa - - - -
1788013824 12.78° C 95% 1016.8 hPa - - - -
1788010215 12.78° C 94% 1016.2 hPa - - - -
1788004808 13.33° C 91% 1016.2 hPa - - - -
1788003012 13.33° C 89% 1016.3 hPa - - - -
1788001231 13.33° C 86% 1016.3 hPa - - - -
1787997620 14.44° C 80% 1016.1 hPa - - - -
1787995828 15.56° C 75% 1016.1 hPa - - - -
1787994029 15.56° C 74% 1016.2 hPa - - - -

* Rain since midnight (hover to see other rain measurements)
** Current wind speed in m/s (hover to see current wind gust speed)